sensor_id;sensor_type;location;lat;lon;timestamp;temperature;humidity
3005;DHT22;1512;51.486;6.610;2022-08-03T00:02:39;21.20;99.90
3005;DHT22;1512;51.486;6.610;2022-08-03T00:06:48;21.10;99.90
3005;DHT22;1512;51.486;6.610;2022-08-03T00:10:56;21.10;99.90
3005;DHT22;1512;51.486;6.610;2022-08-03T00:15:06;21.10;99.90
3005;DHT22;1512;51.486;6.610;2022-08-03T00:19:16;21.00;99.90
3005;DHT22;1512;51.486;6.610;2022-08-03T00:23:25;21.00;99.90
3005;DHT22;1512;51.486;6.610;2022-08-03T00:27:35;21.00;99.90
3005;DHT22;1512;51.486;6.610;2022-08-03T00:31:44;20.90;99.90
3005;DHT22;1512;51.486;6.610;2022-08-03T00:35:54;20.90;99.90
3005;DHT22;1512;51.486;6.610;2022-08-03T00:40:03;20.80;99.90
3005;DHT22;1512;51.486;6.610;2022-08-03T00:44:12;20.80;99.90
3005;DHT22;1512;51.486;6.610;2022-08-03T00:48:20;20.80;99.90
3005;DHT22;1512;51.486;6.610;2022-08-03T00:52:31;20.80;99.90
3005;DHT22;1512;51.486;6.610;2022-08-03T00:56:59;20.80;99.90
3005;DHT22;1512;51.486;6.610;2022-08-03T01:01:08;20.70;99.90
3005;DHT22;1512;51.486;6.610;2022-08-03T01:05:17;20.70;99.90
3005;DHT22;1512;51.486;6.610;2022-08-03T01:09:40;20.70;99.90
3005;DHT22;1512;51.486;6.610;2022-08-03T01:14:02;20.70;99.90
3005;DHT22;1512;51.486;6.610;2022-08-03T01:18:54;20.60;99.90
3005;DHT22;1512;51.486;6.610;2022-08-03T01:31:52;20.50;99.90
3005;DHT22;1512;51.486;6.610;2022-08-03T01:36:06;20.30;99.90
3005;DHT22;1512;51.486;6.610;2022-08-03T01:40:15;20.30;99.90
3005;DHT22;1512;51.486;6.610;2022-08-03T01:44:28;20.20;99.90
3005;DHT22;1512;51.486;6.610;2022-08-03T01:48:39;20.30;99.90
3005;DHT22;1512;51.486;6.610;2022-08-03T01:57:59;20.20;99.90
3005;DHT22;1512;51.486;6.610;2022-08-03T02:02:12;20.20;99.90
3005;DHT22;1512;51.486;6.610;2022-08-03T02:06:24;20.20;99.90
3005;DHT22;1512;51.486;6.610;2022-08-03T02:10:35;20.20;99.90
3005;DHT22;1512;51.486;6.610;2022-08-03T02:14:45;20.10;99.90
3005;DHT22;1512;51.486;6.610;2022-08-03T02:18:55;20.10;99.90
3005;DHT22;1512;51.486;6.610;2022-08-03T02:23:05;20.10;99.90
3005;DHT22;1512;51.486;6.610;2022-08-03T02:27:20;20.10;99.90
3005;DHT22;1512;51.486;6.610;2022-08-03T02:31:31;20.10;99.90
3005;DHT22;1512;51.486;6.610;2022-08-03T02:35:41;20.00;99.90
3005;DHT22;1512;51.486;6.610;2022-08-03T02:39:51;20.00;99.90
3005;DHT22;1512;51.486;6.610;2022-08-03T02:44:04;20.00;99.90
3005;DHT22;1512;51.486;6.610;2022-08-03T02:48:22;20.00;99.90
3005;DHT22;1512;51.486;6.610;2022-08-03T02:52:32;19.90;99.90
3005;DHT22;1512;51.486;6.610;2022-08-03T02:56:44;19.90;99.90
3005;DHT22;1512;51.486;6.610;2022-08-03T03:00:54;19.90;99.90
3005;DHT22;1512;51.486;6.610;2022-08-03T03:05:04;19.80;99.90
3005;DHT22;1512;51.486;6.610;2022-08-03T03:09:16;19.80;99.90
3005;DHT22;1512;51.486;6.610;2022-08-03T03:13:27;19.70;99.90
3005;DHT22;1512;51.486;6.610;2022-08-03T03:17:36;19.70;99.90
3005;DHT22;1512;51.486;6.610;2022-08-03T03:21:46;19.70;99.90
3005;DHT22;1512;51.486;6.610;2022-08-03T03:25:56;19.70;99.90
3005;DHT22;1512;51.486;6.610;2022-08-03T03:30:06;19.70;99.90
3005;DHT22;1512;51.486;6.610;2022-08-03T03:34:15;19.70;99.90
3005;DHT22;1512;51.486;6.610;2022-08-03T03:38:24;19.70;99.90
3005;DHT22;1512;51.486;6.610;2022-08-03T03:42:52;19.70;99.90
3005;DHT22;1512;51.486;6.610;2022-08-03T03:47:00;19.60;99.90
3005;DHT22;1512;51.486;6.610;2022-08-03T03:51:19;19.60;99.90
3005;DHT22;1512;51.486;6.610;2022-08-03T03:55:29;19.50;99.90
3005;DHT22;1512;51.486;6.610;2022-08-03T03:59:38;19.50;99.90
3005;DHT22;1512;51.486;6.610;2022-08-03T04:03:47;19.50;99.90
3005;DHT22;1512;51.486;6.610;2022-08-03T04:08:02;19.50;99.90
3005;DHT22;1512;51.486;6.610;2022-08-03T04:12:36;19.50;99.90
3005;DHT22;1512;51.486;6.610;2022-08-03T04:16:54;19.50;99.90
3005;DHT22;1512;51.486;6.610;2022-08-03T04:21:05;19.60;99.90
3005;DHT22;1512;51.486;6.610;2022-08-03T04:25:16;19.60;99.90
3005;DHT22;1512;51.486;6.610;2022-08-03T04:29:26;19.60;99.90
3005;DHT22;1512;51.486;6.610;2022-08-03T04:33:37;19.60;99.90
3005;DHT22;1512;51.486;6.610;2022-08-03T04:37:51;19.60;99.90
3005;DHT22;1512;51.486;6.610;2022-08-03T04:42:03;19.60;99.90
3005;DHT22;1512;51.486;6.610;2022-08-03T04:46:15;19.60;99.90
3005;DHT22;1512;51.486;6.610;2022-08-03T04:50:25;19.60;99.90
3005;DHT22;1512;51.486;6.610;2022-08-03T04:54:45;19.60;99.90
3005;DHT22;1512;51.486;6.610;2022-08-03T04:58:56;19.60;99.90
3005;DHT22;1512;51.486;6.610;2022-08-03T05:03:05;19.60;99.90
3005;DHT22;1512;51.486;6.610;2022-08-03T05:07:16;19.60;99.90
3005;DHT22;1512;51.486;6.610;2022-08-03T05:11:27;19.60;99.90
3005;DHT22;1512;51.486;6.610;2022-08-03T05:15:35;19.60;99.90
3005;DHT22;1512;51.486;6.610;2022-08-03T05:19:45;19.60;99.90
3005;DHT22;1512;51.486;6.610;2022-08-03T05:23:54;19.60;99.90
3005;DHT22;1512;51.486;6.610;2022-08-03T05:28:03;19.70;99.90
3005;DHT22;1512;51.486;6.610;2022-08-03T05:32:12;19.70;99.90
3005;DHT22;1512;51.486;6.610;2022-08-03T05:36:40;19.80;99.90
3005;DHT22;1512;51.486;6.610;2022-08-03T05:40:48;19.90;99.90
3005;DHT22;1512;51.486;6.610;2022-08-03T05:45:02;19.90;99.90
3005;DHT22;1512;51.486;6.610;2022-08-03T05:49:09;20.00;99.90
3005;DHT22;1512;51.486;6.610;2022-08-03T05:53:17;20.10;99.90
3005;DHT22;1512;51.486;6.610;2022-08-03T05:57:26;20.20;99.90
3005;DHT22;1512;51.486;6.610;2022-08-03T06:01:54;20.20;99.90
3005;DHT22;1512;51.486;6.610;2022-08-03T06:06:03;20.30;99.90
3005;DHT22;1512;51.486;6.610;2022-08-03T06:10:11;20.40;99.90
3005;DHT22;1512;51.486;6.610;2022-08-03T06:14:22;20.50;99.90
3005;DHT22;1512;51.486;6.610;2022-08-03T06:18:30;20.60;99.90
3005;DHT22;1512;51.486;6.610;2022-08-03T06:22:39;20.70;99.90
3005;DHT22;1512;51.486;6.610;2022-08-03T06:26:49;20.80;99.90
3005;DHT22;1512;51.486;6.610;2022-08-03T06:30:58;20.90;99.90
3005;DHT22;1512;51.486;6.610;2022-08-03T06:35:08;21.00;99.90
3005;DHT22;1512;51.486;6.610;2022-08-03T06:39:17;21.10;99.90
3005;DHT22;1512;51.486;6.610;2022-08-03T06:43:26;21.20;99.90
3005;DHT22;1512;51.486;6.610;2022-08-03T06:47:38;21.40;99.90
3005;DHT22;1512;51.486;6.610;2022-08-03T06:51:48;21.50;99.90
3005;DHT22;1512;51.486;6.610;2022-08-03T06:56:04;21.60;99.90
3005;DHT22;1512;51.486;6.610;2022-08-03T07:00:13;21.70;99.90
3005;DHT22;1512;51.486;6.610;2022-08-03T07:04:22;21.90;99.90
3005;DHT22;1512;51.486;6.610;2022-08-03T07:08:30;22.00;99.90
3005;DHT22;1512;51.486;6.610;2022-08-03T07:12:40;22.10;99.90
3005;DHT22;1512;51.486;6.610;2022-08-03T07:16:51;22.20;99.90
3005;DHT22;1512;51.486;6.610;2022-08-03T07:21:00;22.30;99.90
3005;DHT22;1512;51.486;6.610;2022-08-03T07:25:09;22.50;99.90
3005;DHT22;1512;51.486;6.610;2022-08-03T07:29:37;22.60;99.90
3005;DHT22;1512;51.486;6.610;2022-08-03T07:33:46;22.80;99.90
3005;DHT22;1512;51.486;6.610;2022-08-03T07:37:54;22.90;99.90
3005;DHT22;1512;51.486;6.610;2022-08-03T07:42:03;23.10;99.90
3005;DHT22;1512;51.486;6.610;2022-08-03T07:46:12;23.30;99.90
3005;DHT22;1512;51.486;6.610;2022-08-03T07:50:21;23.40;99.90
3005;DHT22;1512;51.486;6.610;2022-08-03T07:54:30;23.60;99.90
3005;DHT22;1512;51.486;6.610;2022-08-03T07:58:38;23.80;99.90
3005;DHT22;1512;51.486;6.610;2022-08-03T08:02:47;23.90;99.90
3005;DHT22;1512;51.486;6.610;2022-08-03T08:06:56;24.10;99.90
3005;DHT22;1512;51.486;6.610;2022-08-03T08:11:05;24.40;99.90
3005;DHT22;1512;51.486;6.610;2022-08-03T08:15:14;24.50;99.90
3005;DHT22;1512;51.486;6.610;2022-08-03T08:19:23;24.60;99.90
3005;DHT22;1512;51.486;6.610;2022-08-03T08:23:33;24.70;99.90
3005;DHT22;1512;51.486;6.610;2022-08-03T08:27:45;24.80;99.90
3005;DHT22;1512;51.486;6.610;2022-08-03T08:31:56;25.20;99.90
3005;DHT22;1512;51.486;6.610;2022-08-03T08:36:24;25.30;99.90
3005;DHT22;1512;51.486;6.610;2022-08-03T08:40:32;25.40;99.90
3005;DHT22;1512;51.486;6.610;2022-08-03T08:44:41;25.50;99.90
3005;DHT22;1512;51.486;6.610;2022-08-03T08:48:51;25.60;99.90
3005;DHT22;1512;51.486;6.610;2022-08-03T08:53:02;25.80;99.90
3005;DHT22;1512;51.486;6.610;2022-08-03T08:57:11;26.00;99.90
3005;DHT22;1512;51.486;6.610;2022-08-03T09:01:22;26.10;99.90
3005;DHT22;1512;51.486;6.610;2022-08-03T09:05:31;26.40;99.90
3005;DHT22;1512;51.486;6.610;2022-08-03T09:09:43;26.50;99.90
3005;DHT22;1512;51.486;6.610;2022-08-03T09:13:53;26.70;99.90
3005;DHT22;1512;51.486;6.610;2022-08-03T09:18:03;26.80;99.90
3005;DHT22;1512;51.486;6.610;2022-08-03T09:22:16;26.90;99.90
3005;DHT22;1512;51.486;6.610;2022-08-03T09:26:27;27.10;99.90
3005;DHT22;1512;51.486;6.610;2022-08-03T09:30:38;27.30;99.90
3005;DHT22;1512;51.486;6.610;2022-08-03T09:34:48;27.50;99.90
3005;DHT22;1512;51.486;6.610;2022-08-03T09:39:06;27.60;99.90
3005;DHT22;1512;51.486;6.610;2022-08-03T09:43:16;27.70;99.90
3005;DHT22;1512;51.486;6.610;2022-08-03T09:47:30;27.80;99.90
3005;DHT22;1512;51.486;6.610;2022-08-03T09:51:39;27.90;99.90
3005;DHT22;1512;51.486;6.610;2022-08-03T09:56:09;28.10;99.90
3005;DHT22;1512;51.486;6.610;2022-08-03T10:00:19;28.30;99.90
3005;DHT22;1512;51.486;6.610;2022-08-03T10:04:28;28.40;99.90
3005;DHT22;1512;51.486;6.610;2022-08-03T10:08:37;28.60;99.90
3005;DHT22;1512;51.486;6.610;2022-08-03T10:12:46;28.70;99.90
3005;DHT22;1512;51.486;6.610;2022-08-03T10:16:55;28.70;99.20
3005;DHT22;1512;51.486;6.610;2022-08-03T10:21:07;28.80;98.60
3005;DHT22;1512;51.486;6.610;2022-08-03T10:25:17;29.00;98.80
3005;DHT22;1512;51.486;6.610;2022-08-03T10:29:27;29.10;97.10
3005;DHT22;1512;51.486;6.610;2022-08-03T10:33:45;29.20;96.30
3005;DHT22;1512;51.486;6.610;2022-08-03T10:38:11;29.40;95.30
3005;DHT22;1512;51.486;6.610;2022-08-03T10:42:23;29.50;95.50
3005;DHT22;1512;51.486;6.610;2022-08-03T10:46:34;29.60;95.50
3005;DHT22;1512;51.486;6.610;2022-08-03T10:50:47;29.70;93.50
3005;DHT22;1512;51.486;6.610;2022-08-03T10:54:56;29.80;92.70
3005;DHT22;1512;51.486;6.610;2022-08-03T11:08:20;30.10;91.10
3005;DHT22;1512;51.486;6.610;2022-08-03T11:12:31;30.20;85.50
3005;DHT22;1512;51.486;6.610;2022-08-03T11:16:48;30.30;83.40
3005;DHT22;1512;51.486;6.610;2022-08-03T11:20:59;30.30;80.20
3005;DHT22;1512;51.486;6.610;2022-08-03T11:25:10;30.30;79.70
3005;DHT22;1512;51.486;6.610;2022-08-03T11:29:29;30.40;78.40
3005;DHT22;1512;51.486;6.610;2022-08-03T11:33:38;30.50;81.80
3005;DHT22;1512;51.486;6.610;2022-08-03T11:46:37;31.00;74.80
3005;DHT22;1512;51.486;6.610;2022-08-03T11:50:47;31.10;71.80
3005;DHT22;1512;51.486;6.610;2022-08-03T11:54:57;31.10;71.20
3005;DHT22;1512;51.486;6.610;2022-08-03T11:59:05;31.30;69.40
3005;DHT22;1512;51.486;6.610;2022-08-03T12:03:19;31.30;72.90
3005;DHT22;1512;51.486;6.610;2022-08-03T12:07:29;31.40;68.90
3005;DHT22;1512;51.486;6.610;2022-08-03T12:11:40;31.60;69.30
3005;DHT22;1512;51.486;6.610;2022-08-03T12:15:57;31.60;68.20
3005;DHT22;1512;51.486;6.610;2022-08-03T12:20:26;31.80;66.10
3005;DHT22;1512;51.486;6.610;2022-08-03T12:24:41;31.80;70.70
3005;DHT22;1512;51.486;6.610;2022-08-03T12:28:50;31.90;62.60
3005;DHT22;1512;51.486;6.610;2022-08-03T12:32:58;31.80;61.70
3005;DHT22;1512;51.486;6.610;2022-08-03T12:37:07;31.70;63.80
3005;DHT22;1512;51.486;6.610;2022-08-03T12:41:25;31.80;63.60
3005;DHT22;1512;51.486;6.610;2022-08-03T12:45:29;31.90;63.80
3005;DHT22;1512;51.486;6.610;2022-08-03T12:49:46;31.90;62.30
3005;DHT22;1512;51.486;6.610;2022-08-03T12:53:56;31.90;63.00
3005;DHT22;1512;51.486;6.610;2022-08-03T12:58:06;32.10;59.70
3005;DHT22;1512;51.486;6.610;2022-08-03T13:02:23;32.10;61.20
3005;DHT22;1512;51.486;6.610;2022-08-03T13:06:34;32.10;58.50
3005;DHT22;1512;51.486;6.610;2022-08-03T13:10:43;32.10;58.60
3005;DHT22;1512;51.486;6.610;2022-08-03T13:14:57;32.20;59.20
3005;DHT22;1512;51.486;6.610;2022-08-03T13:19:06;32.20;56.80
3005;DHT22;1512;51.486;6.610;2022-08-03T13:23:18;32.20;56.50
3005;DHT22;1512;51.486;6.610;2022-08-03T13:27:29;32.20;56.90
3005;DHT22;1512;51.486;6.610;2022-08-03T13:31:40;32.50;54.80
3005;DHT22;1512;51.486;6.610;2022-08-03T13:35:50;32.40;54.70
3005;DHT22;1512;51.486;6.610;2022-08-03T13:40:00;32.40;55.40
3005;DHT22;1512;51.486;6.610;2022-08-03T13:44:10;32.60;55.80
3005;DHT22;1512;51.486;6.610;2022-08-03T13:48:21;32.80;53.30
3005;DHT22;1512;51.486;6.610;2022-08-03T13:52:51;32.80;52.60
3005;DHT22;1512;51.486;6.610;2022-08-03T13:56:59;32.50;52.80
3005;DHT22;1512;51.486;6.610;2022-08-03T14:01:10;32.30;53.60
3005;DHT22;1512;51.486;6.610;2022-08-03T14:05:19;32.30;54.90
3005;DHT22;1512;51.486;6.610;2022-08-03T14:09:28;32.30;53.70
3005;DHT22;1512;51.486;6.610;2022-08-03T14:13:36;32.50;52.90
3005;DHT22;1512;51.486;6.610;2022-08-03T14:17:45;32.40;52.60
3005;DHT22;1512;51.486;6.610;2022-08-03T14:21:56;32.50;52.60
3005;DHT22;1512;51.486;6.610;2022-08-03T14:26:07;32.50;53.20
3005;DHT22;1512;51.486;6.610;2022-08-03T14:30:16;32.30;52.70
3005;DHT22;1512;51.486;6.610;2022-08-03T14:34:25;32.20;52.60
3005;DHT22;1512;51.486;6.610;2022-08-03T14:38:34;31.90;54.20
3005;DHT22;1512;51.486;6.610;2022-08-03T14:42:42;31.90;55.30
3005;DHT22;1512;51.486;6.610;2022-08-03T14:46:51;31.80;53.30
3005;DHT22;1512;51.486;6.610;2022-08-03T14:51:00;32.00;53.50
3005;DHT22;1512;51.486;6.610;2022-08-03T14:55:09;32.20;53.70
3005;DHT22;1512;51.486;6.610;2022-08-03T14:59:17;32.30;54.10
3005;DHT22;1512;51.486;6.610;2022-08-03T15:03:26;32.30;54.60
3005;DHT22;1512;51.486;6.610;2022-08-03T15:07:35;32.40;53.40
3005;DHT22;1512;51.486;6.610;2022-08-03T15:11:43;32.40;55.70
3005;DHT22;1512;51.486;6.610;2022-08-03T15:15:52;32.60;53.40
3005;DHT22;1512;51.486;6.610;2022-08-03T15:20:02;32.60;53.60
3005;DHT22;1512;51.486;6.610;2022-08-03T15:24:12;32.60;54.80
3005;DHT22;1512;51.486;6.610;2022-08-03T15:28:21;32.70;52.50
3005;DHT22;1512;51.486;6.610;2022-08-03T15:32:30;32.60;52.80
3005;DHT22;1512;51.486;6.610;2022-08-03T15:36:38;32.60;53.30
3005;DHT22;1512;51.486;6.610;2022-08-03T15:40:47;32.60;53.80
3005;DHT22;1512;51.486;6.610;2022-08-03T15:44:55;32.40;54.00
3005;DHT22;1512;51.486;6.610;2022-08-03T15:49:04;32.20;54.00
3005;DHT22;1512;51.486;6.610;2022-08-03T15:53:32;32.10;54.10
3005;DHT22;1512;51.486;6.610;2022-08-03T15:57:41;32.10;55.40
3005;DHT22;1512;51.486;6.610;2022-08-03T16:01:51;32.20;55.90
3005;DHT22;1512;51.486;6.610;2022-08-03T16:06:21;32.30;55.00
3005;DHT22;1512;51.486;6.610;2022-08-03T16:10:31;32.30;54.70
3005;DHT22;1512;51.486;6.610;2022-08-03T16:14:40;32.60;53.10
3005;DHT22;1512;51.486;6.610;2022-08-03T16:18:50;32.50;53.50
3005;DHT22;1512;51.486;6.610;2022-08-03T16:22:59;32.30;55.60
3005;DHT22;1512;51.486;6.610;2022-08-03T16:27:09;32.30;54.80
3005;DHT22;1512;51.486;6.610;2022-08-03T16:31:19;32.30;55.30
3005;DHT22;1512;51.486;6.610;2022-08-03T16:35:29;32.30;55.20
3005;DHT22;1512;51.486;6.610;2022-08-03T16:39:38;32.20;55.60
3005;DHT22;1512;51.486;6.610;2022-08-03T16:43:47;32.10;55.00
3005;DHT22;1512;51.486;6.610;2022-08-03T16:47:55;32.10;56.10
3005;DHT22;1512;51.486;6.610;2022-08-03T16:52:06;32.00;54.10
3005;DHT22;1512;51.486;6.610;2022-08-03T16:56:14;31.90;55.30
3005;DHT22;1512;51.486;6.610;2022-08-03T17:00:24;31.90;55.80
3005;DHT22;1512;51.486;6.610;2022-08-03T17:04:34;31.80;56.70
3005;DHT22;1512;51.486;6.610;2022-08-03T17:08:45;31.80;56.00
3005;DHT22;1512;51.486;6.610;2022-08-03T17:12:55;31.70;56.30
3005;DHT22;1512;51.486;6.610;2022-08-03T17:17:07;31.60;56.50
3005;DHT22;1512;51.486;6.610;2022-08-03T17:21:21;31.50;56.70
3005;DHT22;1512;51.486;6.610;2022-08-03T17:25:30;31.50;58.90
3005;DHT22;1512;51.486;6.610;2022-08-03T17:29:44;31.40;57.80
3005;DHT22;1512;51.486;6.610;2022-08-03T17:33:53;31.30;60.10
3005;DHT22;1512;51.486;6.610;2022-08-03T17:38:03;31.20;59.90
3005;DHT22;1512;51.486;6.610;2022-08-03T17:42:13;31.10;63.10
3005;DHT22;1512;51.486;6.610;2022-08-03T18:00:03;30.70;60.60
3005;DHT22;1512;51.486;6.610;2022-08-03T18:04:16;30.60;60.40
3005;DHT22;1512;51.486;6.610;2022-08-03T18:08:34;30.50;61.10
3005;DHT22;1512;51.486;6.610;2022-08-03T18:17:04;30.30;67.10
3005;DHT22;1512;51.486;6.610;2022-08-03T18:21:14;30.10;63.90
3005;DHT22;1512;51.486;6.610;2022-08-03T18:25:24;30.00;64.30
3005;DHT22;1512;51.486;6.610;2022-08-03T18:29:36;29.90;64.00
3005;DHT22;1512;51.486;6.610;2022-08-03T18:34:05;29.80;65.90
3005;DHT22;1512;51.486;6.610;2022-08-03T18:38:17;29.70;69.00
3005;DHT22;1512;51.486;6.610;2022-08-03T18:42:28;29.50;71.60
3005;DHT22;1512;51.486;6.610;2022-08-03T18:47:02;29.30;73.70
3005;DHT22;1512;51.486;6.610;2022-08-03T18:51:20;29.20;75.80
3005;DHT22;1512;51.486;6.610;2022-08-03T18:55:39;29.00;77.50
3005;DHT22;1512;51.486;6.610;2022-08-03T18:59:52;28.80;79.20
3005;DHT22;1512;51.486;6.610;2022-08-03T19:04:08;28.60;80.80
3005;DHT22;1512;51.486;6.610;2022-08-03T19:08:19;28.50;83.40
3005;DHT22;1512;51.486;6.610;2022-08-03T19:12:49;28.40;85.40
3005;DHT22;1512;51.486;6.610;2022-08-03T19:17:03;28.20;86.20
3005;DHT22;1512;51.486;6.610;2022-08-03T19:21:13;28.10;88.70
3005;DHT22;1512;51.486;6.610;2022-08-03T19:25:23;28.00;90.80
3005;DHT22;1512;51.486;6.610;2022-08-03T19:29:37;27.90;92.30
3005;DHT22;1512;51.486;6.610;2022-08-03T19:33:48;27.80;93.40
3005;DHT22;1512;51.486;6.610;2022-08-03T19:38:01;27.70;94.50
3005;DHT22;1512;51.486;6.610;2022-08-03T19:42:11;27.60;95.40
3005;DHT22;1512;51.486;6.610;2022-08-03T19:46:25;27.50;97.80
3005;DHT22;1512;51.486;6.610;2022-08-03T19:50:37;27.30;99.90
3005;DHT22;1512;51.486;6.610;2022-08-03T19:54:49;27.20;99.90
3005;DHT22;1512;51.486;6.610;2022-08-03T19:59:01;27.10;99.90
3005;DHT22;1512;51.486;6.610;2022-08-03T20:03:11;27.10;99.90
3005;DHT22;1512;51.486;6.610;2022-08-03T20:07:23;26.90;99.90
3005;DHT22;1512;51.486;6.610;2022-08-03T20:11:52;26.80;99.90
3005;DHT22;1512;51.486;6.610;2022-08-03T20:16:00;26.80;99.90
3005;DHT22;1512;51.486;6.610;2022-08-03T20:20:10;26.70;99.90
3005;DHT22;1512;51.486;6.610;2022-08-03T20:24:25;26.60;99.90
3005;DHT22;1512;51.486;6.610;2022-08-03T20:28:47;26.50;99.90
3005;DHT22;1512;51.486;6.610;2022-08-03T20:32:53;26.50;99.90
3005;DHT22;1512;51.486;6.610;2022-08-03T20:37:02;26.40;99.90
3005;DHT22;1512;51.486;6.610;2022-08-03T20:41:13;26.30;99.90
3005;DHT22;1512;51.486;6.610;2022-08-03T20:45:22;26.20;99.90
3005;DHT22;1512;51.486;6.610;2022-08-03T20:49:33;26.20;99.90
3005;DHT22;1512;51.486;6.610;2022-08-03T20:53:45;26.10;99.90
3005;DHT22;1512;51.486;6.610;2022-08-03T20:57:56;26.10;99.90
3005;DHT22;1512;51.486;6.610;2022-08-03T21:02:06;26.10;99.90
3005;DHT22;1512;51.486;6.610;2022-08-03T21:06:18;26.00;99.90
3005;DHT22;1512;51.486;6.610;2022-08-03T21:10:29;25.90;99.90
3005;DHT22;1512;51.486;6.610;2022-08-03T21:14:49;25.80;99.90
3005;DHT22;1512;51.486;6.610;2022-08-03T21:18:57;25.80;99.90
3005;DHT22;1512;51.486;6.610;2022-08-03T21:23:08;25.60;99.90
3005;DHT22;1512;51.486;6.610;2022-08-03T21:27:19;25.60;99.90
3005;DHT22;1512;51.486;6.610;2022-08-03T21:31:28;25.60;99.90
3005;DHT22;1512;51.486;6.610;2022-08-03T21:35:37;25.50;99.90
3005;DHT22;1512;51.486;6.610;2022-08-03T21:39:46;25.40;99.90
3005;DHT22;1512;51.486;6.610;2022-08-03T21:43:57;25.40;99.90
3005;DHT22;1512;51.486;6.610;2022-08-03T21:48:08;25.40;99.90
3005;DHT22;1512;51.486;6.610;2022-08-03T21:52:20;25.30;99.90
3005;DHT22;1512;51.486;6.610;2022-08-03T21:56:33;25.30;99.90
3005;DHT22;1512;51.486;6.610;2022-08-03T22:00:42;25.20;99.90
3005;DHT22;1512;51.486;6.610;2022-08-03T22:04:52;25.10;99.90
3005;DHT22;1512;51.486;6.610;2022-08-03T22:09:04;25.10;99.90
3005;DHT22;1512;51.486;6.610;2022-08-03T22:13:17;25.00;99.90
3005;DHT22;1512;51.486;6.610;2022-08-03T22:17:31;24.90;99.90
3005;DHT22;1512;51.486;6.610;2022-08-03T22:21:45;24.90;99.90
3005;DHT22;1512;51.486;6.610;2022-08-03T22:25:56;24.90;99.90
3005;DHT22;1512;51.486;6.610;2022-08-03T22:30:12;24.80;99.90
3005;DHT22;1512;51.486;6.610;2022-08-03T22:34:40;24.80;99.90
3005;DHT22;1512;51.486;6.610;2022-08-03T22:38:51;24.70;99.90
3005;DHT22;1512;51.486;6.610;2022-08-03T22:43:01;24.70;99.90
3005;DHT22;1512;51.486;6.610;2022-08-03T22:47:10;24.70;99.90
3005;DHT22;1512;51.486;6.610;2022-08-03T22:51:20;24.70;99.90
3005;DHT22;1512;51.486;6.610;2022-08-03T22:55:29;24.70;99.90
3005;DHT22;1512;51.486;6.610;2022-08-03T22:59:38;24.60;99.90
3005;DHT22;1512;51.486;6.610;2022-08-03T23:03:56;24.50;99.90
3005;DHT22;1512;51.486;6.610;2022-08-03T23:08:06;24.50;99.90
3005;DHT22;1512;51.486;6.610;2022-08-03T23:12:19;24.40;99.90
3005;DHT22;1512;51.486;6.610;2022-08-03T23:16:28;24.40;99.90
3005;DHT22;1512;51.486;6.610;2022-08-03T23:20:37;24.40;99.90
3005;DHT22;1512;51.486;6.610;2022-08-03T23:24:46;24.30;99.90
3005;DHT22;1512;51.486;6.610;2022-08-03T23:29:00;24.20;99.90
3005;DHT22;1512;51.486;6.610;2022-08-03T23:33:11;24.20;99.90
3005;DHT22;1512;51.486;6.610;2022-08-03T23:37:24;24.10;99.90
3005;DHT22;1512;51.486;6.610;2022-08-03T23:41:34;24.10;99.90
3005;DHT22;1512;51.486;6.610;2022-08-03T23:45:44;24.00;99.90
3005;DHT22;1512;51.486;6.610;2022-08-03T23:49:53;24.00;99.90
3005;DHT22;1512;51.486;6.610;2022-08-03T23:54:14;23.90;99.90
